Terminal Aerodrome Forecast
Issued by NWS

Home | Current Version | Previous Version | Text Only | Print | Product List | Glossary On
Versions: 1 2 3 4 5 6 7 8 9 10 11 12 13 14 15 16
000
FTUS43 KGRR 202300
TAFBTL
TAF
KBTL 202325Z 2100/2124 23006KT P6SM SCT250
     FM210200 16005KT P6SM SCT250
     FM211500 22010KT P6SM BKN120 BKN250
     FM212100 24009KT P6SM VCTS OVC050CB=

USA.gov is the U.S. government's official web portal to all federal, state and local government web resources and services.